createdAt,value
2019-03-20T00:00:15.645Z,1026.81
2019-03-20T00:01:15.639Z,1026.81
2019-03-20T00:02:15.624Z,1026.79
2019-03-20T00:03:15.614Z,1026.83
2019-03-20T00:04:15.614Z,1026.86
2019-03-20T00:05:15.593Z,1026.87
2019-03-20T00:06:15.583Z,1026.94
2019-03-20T00:07:15.573Z,1027.02
2019-03-20T00:08:15.565Z,1026.95
2019-03-20T00:09:15.551Z,1027.01
2019-03-20T00:10:15.555Z,1026.96
2019-03-20T00:11:15.531Z,1027.04
2019-03-20T00:12:15.520Z,1027.04
2019-03-20T00:13:15.509Z,1027.04
2019-03-20T00:14:15.499Z,1027.05
2019-03-20T00:15:15.488Z,1027.07
2019-03-20T00:16:15.488Z,1027.10
2019-03-20T00:17:15.467Z,1027.07
2019-03-20T00:18:15.460Z,1027.09
2019-03-20T00:19:15.448Z,1027.08
2019-03-20T00:20:15.435Z,1027.09
2019-03-20T00:21:15.425Z,1027.15
2019-03-20T00:22:15.430Z,1027.08
2019-03-20T00:23:15.405Z,1027.05
2019-03-20T00:24:15.396Z,1027.05
2019-03-20T00:25:15.388Z,1027.02
2019-03-20T00:26:15.374Z,1027.02
2019-03-20T00:27:15.364Z,1026.97
2019-03-20T00:28:15.369Z,1026.97
2019-03-20T00:29:15.343Z,1026.97
2019-03-20T00:30:15.331Z,1026.93
2019-03-20T00:31:15.321Z,1026.91
2019-03-20T00:32:15.321Z,1026.90
2019-03-20T00:33:15.301Z,1026.91
2019-03-20T00:34:15.305Z,1026.88
2019-03-20T00:35:15.282Z,1026.83
2019-03-20T00:36:15.268Z,1026.86
2019-03-20T00:37:15.258Z,1026.84
2019-03-20T00:38:15.249Z,1026.79
2019-03-20T00:39:15.255Z,1026.86
2019-03-20T00:40:15.238Z,1026.80
2019-03-20T00:41:15.216Z,1026.80
2019-03-20T00:42:15.205Z,1026.79
2019-03-20T00:43:15.195Z,1026.79
2019-03-20T00:44:15.185Z,1026.79
2019-03-20T00:45:15.174Z,1026.79
2019-03-20T00:46:15.173Z,1026.78
2019-03-20T00:47:15.153Z,1026.81
2019-03-20T00:48:15.140Z,1026.79
2019-03-20T00:49:15.132Z,1026.80
2019-03-20T00:50:15.122Z,1026.82
2019-03-20T00:51:15.109Z,1026.79
2019-03-20T00:52:15.108Z,1026.87
2019-03-20T00:53:15.088Z,1026.86
2019-03-20T00:54:15.076Z,1026.84
2019-03-20T00:55:15.065Z,1026.90
2019-03-20T00:56:15.054Z,1026.88
2019-03-20T00:57:15.044Z,1026.87
2019-03-20T00:58:15.044Z,1026.89
2019-03-20T00:59:15.023Z,1026.92
2019-03-20T01:00:15.013Z,1026.88
2019-03-20T01:01:15.000Z,1026.93
2019-03-20T01:02:14.989Z,1026.93
2019-03-20T01:03:14.977Z,1026.87
2019-03-20T01:04:14.992Z,1026.84
2019-03-20T01:05:14.955Z,1026.84
2019-03-20T01:06:14.945Z,1026.84
2019-03-20T01:07:14.935Z,1026.83
2019-03-20T01:08:14.924Z,1026.81
2019-03-20T01:09:14.913Z,1026.86
2019-03-20T01:10:14.914Z,1026.82
2019-03-20T01:11:14.892Z,1026.81
2019-03-20T01:12:14.882Z,1026.82
2019-03-20T01:13:14.872Z,1026.84
2019-03-20T01:14:14.860Z,1026.83
2019-03-20T01:15:14.848Z,1026.84
2019-03-20T01:16:14.848Z,1026.86
2019-03-20T01:17:14.826Z,1026.92
2019-03-20T01:18:14.816Z,1026.89
2019-03-20T01:19:14.805Z,1026.85
2019-03-20T01:20:14.794Z,1026.89
2019-03-20T01:21:14.788Z,1026.85
2019-03-20T01:22:14.785Z,1026.89
2019-03-20T01:23:14.762Z,1026.92
2019-03-20T01:24:14.751Z,1026.93
2019-03-20T01:25:14.740Z,1026.88
2019-03-20T01:26:14.729Z,1026.93
2019-03-20T01:27:14.722Z,1026.93
2019-03-20T01:28:14.720Z,1026.93
2019-03-20T01:29:14.698Z,1026.94
2019-03-20T01:30:14.686Z,1026.91
2019-03-20T01:31:14.675Z,1026.93
2019-03-20T01:32:14.668Z,1026.94
2019-03-20T01:33:14.659Z,1026.91
2019-03-20T01:34:14.660Z,1026.94
2019-03-20T01:35:23.449Z,1027.00
2019-03-20T01:36:15.622Z,1027.00
2019-03-20T01:37:14.611Z,1027.03
2019-03-20T01:38:14.603Z,1027.01
2019-03-20T01:39:14.589Z,1027.02
2019-03-20T01:40:14.591Z,1027.02
2019-03-20T01:41:14.567Z,1026.98
2019-03-20T01:42:14.557Z,1026.99
2019-03-20T01:43:14.548Z,1027.00
2019-03-20T01:44:14.536Z,1026.98
2019-03-20T01:45:14.563Z,1026.97
2019-03-20T01:46:14.555Z,1026.97
2019-03-20T01:47:14.502Z,1026.92
2019-03-20T01:48:14.497Z,1026.91
2019-03-20T01:49:14.480Z,1026.91
2019-03-20T01:50:14.479Z,1026.89
2019-03-20T01:51:14.460Z,1026.88
2019-03-20T01:52:14.495Z,1026.86
2019-03-20T01:53:14.438Z,1026.87
2019-03-20T01:54:14.426Z,1026.89
2019-03-20T01:55:14.416Z,1026.90
2019-03-20T01:56:14.404Z,1026.90
2019-03-20T01:57:14.396Z,1026.93
2019-03-20T01:58:14.394Z,1026.91
2019-03-20T01:59:14.375Z,1026.94
2019-03-20T02:00:14.362Z,1026.93
2019-03-20T02:01:14.351Z,1026.96
2019-03-20T02:02:14.340Z,1026.89
2019-03-20T02:03:14.329Z,1026.93
2019-03-20T02:04:14.331Z,1026.94
2019-03-20T02:05:14.320Z,1026.89
2019-03-20T02:06:14.296Z,1026.94
2019-03-20T02:07:14.286Z,1026.93
2019-03-20T02:08:14.276Z,1026.92
2019-03-20T02:09:14.269Z,1026.91
2019-03-20T02:10:14.265Z,1026.90
2019-03-20T02:11:14.242Z,1026.87
2019-03-20T02:12:14.232Z,1026.89
2019-03-20T02:13:14.222Z,1026.84
2019-03-20T02:14:14.213Z,1026.87
2019-03-20T02:15:14.199Z,1026.92
2019-03-20T02:16:14.199Z,1026.93
2019-03-20T02:17:14.179Z,1026.91
2019-03-20T02:18:14.170Z,1026.93
2019-03-20T02:19:14.156Z,1026.92
2019-03-20T02:20:14.146Z,1026.92
2019-03-20T02:21:14.137Z,1026.93
2019-03-20T02:22:14.136Z,1026.88
2019-03-20T02:23:14.113Z,1026.86
2019-03-20T02:24:14.102Z,1026.88
2019-03-20T02:25:14.093Z,1026.83
2019-03-20T02:26:14.081Z,1026.83
2019-03-20T02:27:14.070Z,1026.83
2019-03-20T02:28:14.070Z,1026.84
2019-03-20T02:29:14.048Z,1026.88
2019-03-20T02:30:14.045Z,1026.84
2019-03-20T02:31:14.028Z,1026.88
2019-03-20T02:32:14.016Z,1026.84
2019-03-20T02:33:14.005Z,1026.79
2019-03-20T02:34:14.009Z,1026.81
2019-03-20T02:35:13.984Z,1026.73
2019-03-20T02:36:13.974Z,1026.81
2019-03-20T02:37:13.968Z,1026.81
2019-03-20T02:38:13.952Z,1026.80
2019-03-20T02:39:13.941Z,1026.80
2019-03-20T02:40:13.950Z,1026.79
2019-03-20T02:41:13.919Z,1026.87
2019-03-20T02:42:13.908Z,1026.84
2019-03-20T02:43:13.898Z,1026.81
2019-03-20T02:44:13.888Z,1026.83
2019-03-20T02:45:13.880Z,1026.83
2019-03-20T02:46:13.879Z,1026.84
2019-03-20T02:47:13.862Z,1026.88
2019-03-20T02:48:13.845Z,1026.83
2019-03-20T02:49:13.838Z,1026.84
2019-03-20T02:50:13.826Z,1026.86
2019-03-20T02:51:13.812Z,1026.83
2019-03-20T02:52:13.819Z,1026.82
2019-03-20T02:53:13.801Z,1026.78
2019-03-20T02:54:13.785Z,1026.79
2019-03-20T02:55:13.773Z,1026.83
2019-03-20T02:56:13.758Z,1026.81
2019-03-20T02:57:13.748Z,1026.83
2019-03-20T02:58:13.752Z,1026.78
2019-03-20T02:59:13.726Z,1026.85
2019-03-20T03:00:13.723Z,1026.89
2019-03-20T03:01:13.712Z,1026.90
2019-03-20T03:02:13.695Z,1026.83
2019-03-20T03:03:13.686Z,1026.85
2019-03-20T03:04:13.684Z,1026.87
2019-03-20T03:05:13.667Z,1026.88
2019-03-20T03:06:13.654Z,1026.87
2019-03-20T03:07:13.643Z,1026.92
2019-03-20T03:08:13.636Z,1026.89
2019-03-20T03:09:13.622Z,1026.89
2019-03-20T03:10:13.623Z,1026.86
2019-03-20T03:11:13.606Z,1026.87
2019-03-20T03:12:13.591Z,1026.81
2019-03-20T03:13:13.582Z,1026.88
2019-03-20T03:14:13.570Z,1026.82
2019-03-20T03:15:13.563Z,1026.84
2019-03-20T03:16:13.561Z,1026.86
2019-03-20T03:17:13.539Z,1026.88
2019-03-20T03:18:13.529Z,1026.85
2019-03-20T03:19:13.518Z,1026.88
2019-03-20T03:20:13.512Z,1026.91
2019-03-20T03:21:13.498Z,1026.86
2019-03-20T03:22:13.498Z,1026.87
2019-03-20T03:23:13.479Z,1026.93
2019-03-20T03:24:13.469Z,1026.91
2019-03-20T03:25:13.459Z,1026.92
2019-03-20T03:26:13.445Z,1026.86
2019-03-20T03:27:13.435Z,1026.86
2019-03-20T03:28:13.445Z,1026.90
2019-03-20T03:29:13.416Z,1026.89
2019-03-20T03:30:13.404Z,1026.89
2019-03-20T03:31:13.396Z,1026.89
2019-03-20T03:32:13.387Z,1026.88
2019-03-20T03:33:13.373Z,1026.89
2019-03-20T03:34:13.391Z,1026.89
2019-03-20T03:35:17.162Z,1026.86
2019-03-20T03:36:21.342Z,1026.81
2019-03-20T03:37:14.330Z,1026.78
2019-03-20T03:38:13.320Z,1026.79
2019-03-20T03:39:13.309Z,1026.77
2019-03-20T03:40:13.309Z,1026.76
2019-03-20T03:41:13.293Z,1026.81
2019-03-20T03:42:13.289Z,1026.73
2019-03-20T03:43:13.274Z,1026.74
2019-03-20T03:44:13.258Z,1026.74
2019-03-20T03:45:13.251Z,1026.71
2019-03-20T03:46:13.250Z,1026.71
2019-03-20T03:47:13.225Z,1026.71
2019-03-20T03:48:13.213Z,1026.68
2019-03-20T03:49:13.204Z,1026.68
2019-03-20T03:50:13.194Z,1026.73
2019-03-20T03:51:13.182Z,1026.75
2019-03-20T03:52:13.181Z,1026.73
2019-03-20T03:53:13.162Z,1026.77
2019-03-20T03:54:13.151Z,1026.76
2019-03-20T03:55:13.138Z,1026.74
2019-03-20T03:56:13.133Z,1026.77
2019-03-20T03:57:13.119Z,1026.76
2019-03-20T03:58:13.117Z,1026.83
2019-03-20T03:59:13.111Z,1026.80
2019-03-20T04:00:13.096Z,1026.85
2019-03-20T04:01:13.080Z,1026.81
2019-03-20T04:02:13.065Z,1026.81
2019-03-20T04:03:13.058Z,1026.83
2019-03-20T04:04:13.054Z,1026.84
2019-03-20T04:05:13.031Z,1026.85
2019-03-20T04:06:13.022Z,1026.78
2019-03-20T04:07:13.009Z,1026.79
2019-03-20T04:08:12.999Z,1026.79
2019-03-20T04:09:12.994Z,1026.83
2019-03-20T04:10:12.987Z,1026.76
2019-03-20T04:11:12.966Z,1026.79
2019-03-20T04:12:12.963Z,1026.83
2019-03-20T04:13:12.948Z,1026.78
2019-03-20T04:14:12.935Z,1026.84
2019-03-20T04:15:12.924Z,1026.80
2019-03-20T04:16:12.924Z,1026.83
2019-03-20T04:17:12.901Z,1026.86
2019-03-20T04:18:12.892Z,1026.86
2019-03-20T04:19:12.881Z,1026.89
2019-03-20T04:20:12.876Z,1026.89
2019-03-20T04:21:12.873Z,1026.90
2019-03-20T04:22:12.872Z,1026.88
2019-03-20T04:23:12.838Z,1026.85
2019-03-20T04:24:12.829Z,1026.86
2019-03-20T04:25:12.819Z,1026.85
2019-03-20T04:26:12.807Z,1026.80
2019-03-20T04:27:12.800Z,1026.87
2019-03-20T04:28:12.795Z,1026.88
2019-03-20T04:29:14.109Z,1026.92
2019-03-20T04:30:12.843Z,1026.90
2019-03-20T04:31:12.757Z,1026.91
2019-03-20T04:32:12.744Z,1026.90
2019-03-20T04:33:12.734Z,1026.88
2019-03-20T04:34:12.739Z,1026.86
2019-03-20T04:35:12.718Z,1026.90
2019-03-20T04:36:12.702Z,1026.87
2019-03-20T04:37:12.693Z,1026.93
2019-03-20T04:38:12.682Z,1026.88
2019-03-20T04:39:12.670Z,1026.91
2019-03-20T04:40:12.673Z,1026.93
2019-03-20T04:41:12.651Z,1026.94
2019-03-20T04:42:12.639Z,1026.99
2019-03-20T04:43:12.629Z,1026.98
2019-03-20T04:44:12.617Z,1027.01
2019-03-20T04:45:12.864Z,1026.98
2019-03-20T04:46:12.607Z,1027.00
2019-03-20T04:47:12.586Z,1026.96
2019-03-20T04:48:12.579Z,1026.91
2019-03-20T04:49:12.569Z,1027.00
2019-03-20T04:50:12.555Z,1026.97
2019-03-20T04:51:12.546Z,1026.95
2019-03-20T04:52:12.552Z,1026.96
2019-03-20T04:53:12.524Z,1026.99
2019-03-20T04:54:12.514Z,1026.97
2019-03-20T04:55:12.503Z,1026.96
2019-03-20T04:56:12.492Z,1026.94
2019-03-20T04:57:12.482Z,1026.92
2019-03-20T04:58:12.488Z,1026.97
2019-03-20T04:59:12.461Z,1026.98
2019-03-20T05:00:12.450Z,1026.99
2019-03-20T05:01:12.440Z,1027.01
2019-03-20T05:02:12.430Z,1026.99
2019-03-20T05:03:12.419Z,1026.95
2019-03-20T05:04:12.421Z,1026.91
2019-03-20T05:05:12.398Z,1026.90
2019-03-20T05:06:12.397Z,1026.87
2019-03-20T05:07:12.384Z,1026.88
2019-03-20T05:08:12.372Z,1026.93
2019-03-20T05:09:12.357Z,1026.96
2019-03-20T05:10:12.358Z,1027.04
2019-03-20T05:11:12.337Z,1027.00
2019-03-20T05:12:12.326Z,1027.05
2019-03-20T05:13:12.315Z,1027.03
2019-03-20T05:14:12.559Z,1027.05
2019-03-20T05:15:12.295Z,1027.05
2019-03-20T05:16:12.297Z,1027.06
2019-03-20T05:17:12.273Z,1027.08
2019-03-20T05:18:12.264Z,1027.02
2019-03-20T05:19:12.254Z,1027.09
2019-03-20T05:20:12.244Z,1027.02
2019-03-20T05:21:12.232Z,1027.05
2019-03-20T05:22:12.239Z,1027.04
2019-03-20T05:23:12.211Z,1027.07
2019-03-20T05:24:12.201Z,1027.10
2019-03-20T05:25:12.191Z,1027.12
2019-03-20T05:26:12.179Z,1027.17
2019-03-20T05:27:12.171Z,1027.16
2019-03-20T05:28:12.170Z,1027.20
2019-03-20T05:29:12.148Z,1027.19
2019-03-20T05:30:12.152Z,1027.16
2019-03-20T05:31:12.129Z,1027.21
2019-03-20T05:32:12.117Z,1027.23
2019-03-20T05:33:12.105Z,1027.26
2019-03-20T05:34:12.105Z,1027.24
2019-03-20T05:35:12.086Z,1027.23
2019-03-20T05:36:12.074Z,1027.28
2019-03-20T05:37:12.070Z,1027.35
2019-03-20T05:38:12.053Z,1027.29
2019-03-20T05:39:12.043Z,1027.37
2019-03-20T05:40:12.045Z,1027.30
2019-03-20T05:41:12.021Z,1027.25
2019-03-20T05:42:12.010Z,1027.29
2019-03-20T05:43:12.000Z,1027.29
2019-03-20T05:44:11.990Z,1027.29
2019-03-20T05:45:11.979Z,1027.27
2019-03-20T05:46:11.983Z,1027.27
2019-03-20T05:47:11.958Z,1027.24
2019-03-20T05:48:11.946Z,1027.23
2019-03-20T05:49:11.936Z,1027.22
2019-03-20T05:50:11.925Z,1027.22
2019-03-20T05:51:11.913Z,1027.27
2019-03-20T05:52:11.921Z,1027.26
2019-03-20T05:53:11.893Z,1027.26
2019-03-20T05:54:11.894Z,1027.34
2019-03-20T05:55:11.874Z,1027.32
2019-03-20T05:56:11.861Z,1027.29
2019-03-20T05:57:12.717Z,1027.25
2019-03-20T05:58:11.850Z,1027.27
2019-03-20T05:59:11.830Z,1027.34
2019-03-20T06:00:11.817Z,1027.35
2019-03-20T06:01:11.810Z,1027.30
2019-03-20T06:02:11.799Z,1027.32
2019-03-20T06:03:11.784Z,1027.38
2019-03-20T06:04:11.783Z,1027.39
2019-03-20T06:05:11.762Z,1027.41
2019-03-20T06:06:11.753Z,1027.39
2019-03-20T06:07:21.165Z,1027.41
2019-03-20T06:08:12.730Z,1027.46
2019-03-20T06:09:11.721Z,1027.47
2019-03-20T06:10:11.721Z,1027.41
2019-03-20T06:11:11.699Z,1027.48
2019-03-20T06:12:11.688Z,1027.48
2019-03-20T06:13:11.678Z,1027.51
2019-03-20T06:14:11.667Z,1027.51
2019-03-20T06:15:11.661Z,1027.54
2019-03-20T06:16:11.658Z,1027.59
2019-03-20T06:17:11.636Z,1027.58
2019-03-20T06:18:11.628Z,1027.65
2019-03-20T06:19:11.616Z,1027.55
2019-03-20T06:20:11.605Z,1027.58
2019-03-20T06:21:11.595Z,1027.62
2019-03-20T06:22:11.594Z,1027.63
2019-03-20T06:23:11.576Z,1027.58
2019-03-20T06:24:11.564Z,1027.53
2019-03-20T06:25:11.552Z,1027.51
2019-03-20T06:26:11.543Z,1027.48
2019-03-20T06:27:11.529Z,1027.43
2019-03-20T06:28:11.531Z,1027.47
2019-03-20T06:29:11.508Z,1027.46
2019-03-20T06:30:11.502Z,1027.48
2019-03-20T06:31:11.485Z,1027.50
2019-03-20T06:32:11.478Z,1027.51
2019-03-20T06:33:11.465Z,1027.56
2019-03-20T06:34:11.469Z,1027.56
2019-03-20T06:35:11.445Z,1027.57
2019-03-20T06:36:11.430Z,1027.54
2019-03-20T06:37:11.419Z,1027.55
2019-03-20T06:38:11.409Z,1027.63
2019-03-20T06:39:11.398Z,1027.62
2019-03-20T06:40:11.405Z,1027.62
2019-03-20T06:41:11.377Z,1027.66
2019-03-20T06:42:11.365Z,1027.66
2019-03-20T06:43:11.356Z,1027.64
2019-03-20T06:44:11.344Z,1027.61
2019-03-20T06:45:11.334Z,1027.62
2019-03-20T06:46:11.335Z,1027.77
2019-03-20T06:47:11.311Z,1027.81
2019-03-20T06:48:11.301Z,1027.83
2019-03-20T06:49:11.292Z,1027.77
2019-03-20T06:50:11.280Z,1027.78
2019-03-20T06:51:11.269Z,1027.75
2019-03-20T06:52:11.277Z,1027.72
2019-03-20T06:53:11.248Z,1027.77
2019-03-20T06:54:11.237Z,1027.71
2019-03-20T06:55:11.226Z,1027.77
2019-03-20T06:56:11.216Z,1027.74
2019-03-20T06:57:11.204Z,1027.77
2019-03-20T06:58:11.205Z,1027.77
2019-03-20T06:59:11.183Z,1027.73
2019-03-20T07:00:11.173Z,1027.82
2019-03-20T07:01:11.161Z,1027.84
2019-03-20T07:02:11.152Z,1027.88
2019-03-20T07:03:11.139Z,1027.91
2019-03-20T07:04:11.139Z,1027.85
2019-03-20T07:05:11.118Z,1027.83
2019-03-20T07:06:11.107Z,1027.90
2019-03-20T07:07:11.096Z,1027.93
2019-03-20T07:08:11.086Z,1027.90
2019-03-20T07:09:11.082Z,1027.89
2019-03-20T07:10:11.074Z,1027.93
2019-03-20T07:11:11.056Z,1027.98
2019-03-20T07:12:11.043Z,1027.88
2019-03-20T07:13:11.035Z,1027.90
2019-03-20T07:14:11.027Z,1027.92
2019-03-20T07:15:11.013Z,1027.89
2019-03-20T07:16:11.011Z,1027.87
2019-03-20T07:17:10.993Z,1027.82
2019-03-20T07:18:10.977Z,1027.87
2019-03-20T07:19:10.966Z,1027.84
2019-03-20T07:20:10.958Z,1027.82
2019-03-20T07:21:10.944Z,1027.90
2019-03-20T07:22:10.944Z,1027.86
2019-03-20T07:23:10.922Z,1027.87
2019-03-20T07:24:10.911Z,1027.94
2019-03-20T07:25:10.904Z,1027.98
2019-03-20T07:26:10.892Z,1028.07
2019-03-20T07:27:10.879Z,1028.09
2019-03-20T07:28:10.886Z,1028.15
2019-03-20T07:29:10.858Z,1028.21
2019-03-20T07:30:10.847Z,1028.26
2019-03-20T07:31:15.591Z,1028.23
2019-03-20T07:32:11.824Z,1028.25
2019-03-20T07:33:10.813Z,1028.15
2019-03-20T07:34:10.813Z,1028.15
2019-03-20T07:35:10.791Z,1028.16
2019-03-20T07:36:10.779Z,1028.14
2019-03-20T07:37:10.769Z,1028.21
2019-03-20T07:38:10.758Z,1028.22
2019-03-20T07:39:10.752Z,1028.27
2019-03-20T07:40:10.746Z,1028.27
2019-03-20T07:41:10.724Z,1028.30
2019-03-20T07:42:10.712Z,1028.25
2019-03-20T07:43:10.711Z,1028.24
2019-03-20T07:44:10.691Z,1028.30
2019-03-20T07:45:10.682Z,1028.32
2019-03-20T07:46:10.688Z,1028.31
2019-03-20T07:47:10.659Z,1028.32
2019-03-20T07:48:21.162Z,1028.29
2019-03-20T07:49:11.637Z,1028.32
2019-03-20T07:50:10.628Z,1028.32
2019-03-20T07:51:10.617Z,1028.34
2019-03-20T07:52:10.621Z,1028.35
2019-03-20T07:53:10.597Z,1028.37
2019-03-20T07:54:10.583Z,1028.33
2019-03-20T07:55:10.573Z,1028.39
2019-03-20T07:56:10.562Z,1028.35
2019-03-20T07:57:10.551Z,1028.37
2019-03-20T07:58:10.560Z,1028.42
2019-03-20T07:59:10.531Z,1028.45
2019-03-20T08:00:10.520Z,1028.45
2019-03-20T08:01:10.507Z,1028.47
2019-03-20T08:02:10.497Z,1028.43
2019-03-20T08:03:10.486Z,1028.50
2019-03-20T08:04:10.487Z,1028.42
2019-03-20T08:05:10.463Z,1028.41
2019-03-20T08:06:10.452Z,1028.48
2019-03-20T08:07:10.441Z,1028.52
2019-03-20T08:08:10.430Z,1028.50
2019-03-20T08:09:10.422Z,1028.46
2019-03-20T08:10:10.420Z,1028.52
2019-03-20T08:11:10.399Z,1028.49
2019-03-20T08:12:10.386Z,1028.49
2019-03-20T08:13:10.376Z,1028.48
2019-03-20T08:14:10.365Z,1028.56
2019-03-20T08:15:10.363Z,1028.59
2019-03-20T08:16:10.354Z,1028.54
2019-03-20T08:17:10.334Z,1028.58
2019-03-20T08:18:10.329Z,1028.60
2019-03-20T08:19:10.311Z,1028.64
2019-03-20T08:20:10.303Z,1028.63
2019-03-20T08:21:10.289Z,1028.67
2019-03-20T08:22:10.294Z,1028.65
2019-03-20T08:23:10.268Z,1028.64
2019-03-20T08:24:10.260Z,1028.64
2019-03-20T08:25:10.246Z,1028.60
2019-03-20T08:26:10.237Z,1028.65
2019-03-20T08:27:10.225Z,1028.62
2019-03-20T08:28:10.233Z,1028.64
2019-03-20T08:29:10.203Z,1028.63
2019-03-20T08:30:10.195Z,1028.64
2019-03-20T08:31:10.182Z,1028.67
2019-03-20T08:32:10.171Z,1028.63
2019-03-20T08:33:10.160Z,1028.70
2019-03-20T08:34:10.170Z,1028.65
2019-03-20T08:35:10.139Z,1028.67
2019-03-20T08:36:10.129Z,1028.62
2019-03-20T08:37:10.117Z,1028.64
2019-03-20T08:38:18.155Z,1028.67
2019-03-20T08:39:11.106Z,1028.70
2019-03-20T08:40:10.085Z,1028.72
2019-03-20T08:41:10.074Z,1028.71
2019-03-20T08:42:10.064Z,1028.77
2019-03-20T08:43:10.054Z,1028.73
2019-03-20T08:44:10.045Z,1028.75
2019-03-20T08:45:10.043Z,1028.73
2019-03-20T08:46:10.021Z,1028.77
2019-03-20T08:47:10.010Z,1028.76
2019-03-20T08:48:10.000Z,1028.76
2019-03-20T08:49:09.990Z,1028.77
2019-03-20T08:50:09.977Z,1028.79
2019-03-20T08:51:09.979Z,1028.75
2019-03-20T08:52:09.956Z,1028.81
2019-03-20T08:53:09.945Z,1028.77
2019-03-20T08:54:09.936Z,1028.74
2019-03-20T08:55:09.924Z,1028.75
2019-03-20T08:56:09.914Z,1028.70
2019-03-20T08:57:09.915Z,1028.74
2019-03-20T08:58:09.893Z,1028.81
2019-03-20T08:59:09.881Z,1028.73
2019-03-20T09:00:09.874Z,1028.75
2019-03-20T09:01:09.863Z,1028.79
2019-03-20T09:02:09.849Z,1028.79
2019-03-20T09:03:09.857Z,1028.75
2019-03-20T09:04:09.828Z,1028.73
2019-03-20T09:05:09.821Z,1028.76
2019-03-20T09:06:09.822Z,1028.81
2019-03-20T09:07:09.797Z,1028.82
2019-03-20T09:08:09.807Z,1028.79
2019-03-20T09:09:09.797Z,1028.89
2019-03-20T09:10:09.763Z,1028.88
2019-03-20T09:11:09.757Z,1028.86
2019-03-20T09:12:09.741Z,1028.90
2019-03-20T09:13:09.730Z,1028.85
2019-03-20T09:14:09.719Z,1028.82
2019-03-20T09:15:09.721Z,1028.81
2019-03-20T09:16:09.696Z,1028.78
2019-03-20T09:17:09.686Z,1028.79
2019-03-20T09:18:09.675Z,1028.79
2019-03-20T09:19:09.670Z,1028.77
2019-03-20T09:20:09.682Z,1028.80
2019-03-20T09:21:09.655Z,1028.77
2019-03-20T09:22:09.631Z,1028.83
2019-03-20T09:23:09.619Z,1028.77
2019-03-20T09:24:09.609Z,1028.82
2019-03-20T09:25:09.599Z,1028.83
2019-03-20T09:26:09.587Z,1028.83
2019-03-20T09:27:09.586Z,1028.84
2019-03-20T09:28:09.564Z,1028.83
2019-03-20T09:29:18.145Z,1028.87
2019-03-20T09:30:10.542Z,1028.84
2019-03-20T09:31:09.533Z,1028.79
2019-03-20T09:32:09.522Z,1028.87
2019-03-20T09:33:09.525Z,1028.83
2019-03-20T09:34:09.500Z,1028.91
2019-03-20T09:35:09.490Z,1028.88
2019-03-20T09:36:09.478Z,1028.86
2019-03-20T09:37:09.467Z,1028.82
2019-03-20T09:38:09.459Z,1028.83
2019-03-20T09:39:09.460Z,1028.81
2019-03-20T09:40:09.435Z,1028.79
2019-03-20T09:41:09.425Z,1028.80
2019-03-20T09:42:09.416Z,1028.78
2019-03-20T09:43:09.403Z,1028.77
2019-03-20T09:44:09.392Z,1028.78
2019-03-20T09:45:09.399Z,1028.77
2019-03-20T09:46:09.377Z,1028.75
2019-03-20T09:47:09.370Z,1028.76
2019-03-20T09:48:09.390Z,1028.77
2019-03-20T09:49:09.343Z,1028.77
2019-03-20T09:50:09.329Z,1028.77
2019-03-20T09:51:09.361Z,1028.78
2019-03-20T09:52:09.307Z,1028.80
2019-03-20T09:53:09.299Z,1028.76
2019-03-20T09:54:09.288Z,1028.79
2019-03-20T09:55:09.274Z,1028.76
2019-03-20T09:56:09.264Z,1028.82
2019-03-20T09:57:09.272Z,1028.74
2019-03-20T09:58:11.840Z,1028.77
2019-03-20T09:59:09.233Z,1028.76
2019-03-20T10:00:09.222Z,1028.77
2019-03-20T10:01:09.210Z,1028.74
2019-03-20T10:02:09.201Z,1028.79
2019-03-20T10:03:09.200Z,1028.76
2019-03-20T10:04:09.178Z,1028.82
2019-03-20T10:05:09.167Z,1028.77
2019-03-20T10:06:09.156Z,1028.80
2019-03-20T10:07:09.146Z,1028.88
2019-03-20T10:08:09.135Z,1028.84
2019-03-20T10:09:09.135Z,1028.87
2019-03-20T10:10:09.115Z,1028.85
2019-03-20T10:11:09.104Z,1028.86
2019-03-20T10:12:09.092Z,1028.87
2019-03-20T10:13:09.084Z,1028.84
2019-03-20T10:14:09.075Z,1028.85
2019-03-20T10:15:09.070Z,1028.89
2019-03-20T10:16:09.050Z,1028.88
2019-03-20T10:17:09.038Z,1028.83
2019-03-20T10:18:09.031Z,1028.85
2019-03-20T10:19:09.024Z,1028.86
2019-03-20T10:20:09.007Z,1028.86
2019-03-20T10:21:09.006Z,1028.78
2019-03-20T10:22:08.984Z,1028.84
2019-03-20T10:23:08.979Z,1028.84
2019-03-20T10:24:08.966Z,1028.82
2019-03-20T10:25:08.953Z,1028.82
2019-03-20T10:26:08.943Z,1028.76
2019-03-20T10:27:08.942Z,1028.74
2019-03-20T10:28:08.921Z,1028.80
2019-03-20T10:29:08.929Z,1028.80
2019-03-20T10:30:08.899Z,1028.80
2019-03-20T10:31:08.896Z,1028.77
2019-03-20T10:32:08.878Z,1028.79
2019-03-20T10:33:08.877Z,1028.77
2019-03-20T10:34:08.856Z,1028.79
2019-03-20T10:35:08.850Z,1028.84
2019-03-20T10:36:08.842Z,1028.87
2019-03-20T10:37:08.849Z,1028.86
2019-03-20T10:38:08.810Z,1028.87
2019-03-20T10:39:08.863Z,1028.89
2019-03-20T10:40:08.790Z,1028.92
2019-03-20T10:41:08.778Z,1028.95
2019-03-20T10:42:08.767Z,1028.90
2019-03-20T10:43:08.756Z,1028.90
2019-03-20T10:44:08.747Z,1028.96
2019-03-20T10:45:08.746Z,1028.86
2019-03-20T10:46:08.724Z,1028.93
2019-03-20T10:47:08.716Z,1028.93
2019-03-20T10:48:08.702Z,1028.96
2019-03-20T10:49:08.694Z,1028.97
2019-03-20T10:50:08.690Z,1028.97
2019-03-20T10:51:08.683Z,1028.95
2019-03-20T10:52:08.661Z,1028.99
2019-03-20T10:53:08.648Z,1028.97
2019-03-20T10:54:08.638Z,1029.02
2019-03-20T10:55:08.627Z,1029.07
2019-03-20T10:56:08.624Z,1029.00
2019-03-20T10:57:08.619Z,1029.03
2019-03-20T10:58:08.596Z,1029.06
2019-03-20T10:59:08.584Z,1029.00
2019-03-20T11:00:08.577Z,1029.05
2019-03-20T11:01:08.562Z,1029.07
2019-03-20T11:02:08.551Z,1029.10
2019-03-20T11:03:08.552Z,1029.14
2019-03-20T11:04:08.547Z,1029.14
2019-03-20T11:05:08.530Z,1029.11
2019-03-20T11:06:08.514Z,1029.14
2019-03-20T11:07:08.499Z,1029.08
2019-03-20T11:08:08.493Z,1029.06
2019-03-20T11:09:17.731Z,1029.12
2019-03-20T11:10:09.469Z,1029.15
2019-03-20T11:11:08.475Z,1029.14
2019-03-20T11:12:08.443Z,1029.12
2019-03-20T11:13:08.437Z,1029.14
2019-03-20T11:14:08.445Z,1029.13
2019-03-20T11:15:08.425Z,1029.14
2019-03-20T11:16:08.402Z,1029.14
2019-03-20T11:17:08.394Z,1029.11
2019-03-20T11:18:08.386Z,1029.14
2019-03-20T11:19:08.373Z,1029.14
2019-03-20T11:20:08.359Z,1029.16
2019-03-20T11:21:08.383Z,1029.16
2019-03-20T11:22:18.236Z,1029.16
2019-03-20T11:23:09.324Z,1029.17
2019-03-20T11:24:08.318Z,1029.14
2019-03-20T11:25:08.305Z,1029.16
2019-03-20T11:26:08.294Z,1029.18
2019-03-20T11:27:08.294Z,1029.13
2019-03-20T11:28:08.272Z,1029.18
2019-03-20T11:29:08.264Z,1029.15
2019-03-20T11:30:08.250Z,1029.13
2019-03-20T11:31:08.240Z,1029.13
2019-03-20T11:32:08.230Z,1029.19
2019-03-20T11:33:08.232Z,1029.21
2019-03-20T11:34:08.208Z,1029.24
2019-03-20T11:35:08.197Z,1029.29
2019-03-20T11:36:08.186Z,1029.29
2019-03-20T11:37:08.176Z,1029.27
2019-03-20T11:38:08.165Z,1029.31
2019-03-20T11:39:08.172Z,1029.32
2019-03-20T11:40:08.147Z,1029.32
2019-03-20T11:41:08.132Z,1029.32
2019-03-20T11:42:08.122Z,1029.32
2019-03-20T11:43:08.113Z,1029.32
2019-03-20T11:44:08.099Z,1029.33
2019-03-20T11:45:08.100Z,1029.32
2019-03-20T11:46:08.113Z,1029.33
2019-03-20T11:47:08.067Z,1029.33
2019-03-20T11:48:08.061Z,1029.32
2019-03-20T11:49:08.051Z,1029.27
2019-03-20T11:50:08.037Z,1029.25
2019-03-20T11:51:08.045Z,1029.26
2019-03-20T11:52:08.020Z,1029.23
2019-03-20T11:53:08.005Z,1029.25
2019-03-20T11:54:07.994Z,1029.20
2019-03-20T11:55:07.983Z,1029.20
2019-03-20T11:56:07.972Z,1029.28
2019-03-20T11:57:07.972Z,1029.29
2019-03-20T11:58:07.956Z,1029.29
2019-03-20T11:59:07.940Z,1029.32
2019-03-20T12:00:07.930Z,1029.29
2019-03-20T12:01:07.920Z,1029.36
2019-03-20T12:02:07.908Z,1029.34
2019-03-20T12:03:07.959Z,1029.30
2019-03-20T12:04:07.887Z,1029.32
2019-03-20T12:05:07.877Z,1029.21